Aviation Digital Data Service (ADDS)

Output produced by TAFs form (2052 UTC 24 September 2016)
found at http://aviationweather.gov/adds/tafs/
 
KCNY 241932Z 2420/2518 28014KT P6SM SCT060 
     FM250200 35004KT P6SM FEW100 
     FM250800 09005KT P6SM SKC